sensor_id;sensor_type;location;lat;lon;timestamp;P1;durP1;ratioP1;P2;durP2;ratioP2
11608;SDS011;5860;52.018;8.536;2024-03-08T00:00:12;27.77;;;17.90;;
11608;SDS011;5860;52.018;8.536;2024-03-08T00:02:43;24.00;;;17.27;;
11608;SDS011;5860;52.018;8.536;2024-03-08T00:05:11;26.70;;;17.70;;
11608;SDS011;5860;52.018;8.536;2024-03-08T00:07:39;24.50;;;17.23;;
11608;SDS011;5860;52.018;8.536;2024-03-08T00:10:07;24.93;;;17.47;;
11608;SDS011;5860;52.018;8.536;2024-03-08T00:12:39;28.30;;;18.37;;
11608;SDS011;5860;52.018;8.536;2024-03-08T00:15:12;27.50;;;17.27;;
11608;SDS011;5860;52.018;8.536;2024-03-08T00:17:45;27.37;;;17.43;;
11608;SDS011;5860;52.018;8.536;2024-03-08T00:20:14;25.50;;;17.73;;
11608;SDS011;5860;52.018;8.536;2024-03-08T00:22:41;26.43;;;17.97;;
11608;SDS011;5860;52.018;8.536;2024-03-08T00:25:08;28.70;;;18.50;;
11608;SDS011;5860;52.018;8.536;2024-03-08T00:27:36;28.47;;;19.13;;
11608;SDS011;5860;52.018;8.536;2024-03-08T00:30:04;27.50;;;18.37;;
11608;SDS011;5860;52.018;8.536;2024-03-08T00:32:32;27.80;;;17.90;;
11608;SDS011;5860;52.018;8.536;2024-03-08T00:35:00;27.77;;;17.80;;
11608;SDS011;5860;52.018;8.536;2024-03-08T00:37:27;29.87;;;18.23;;
11608;SDS011;5860;52.018;8.536;2024-03-08T00:39:54;25.67;;;18.30;;
11608;SDS011;5860;52.018;8.536;2024-03-08T00:42:21;24.70;;;17.70;;
11608;SDS011;5860;52.018;8.536;2024-03-08T00:44:48;25.40;;;17.70;;
11608;SDS011;5860;52.018;8.536;2024-03-08T00:47:18;27.63;;;18.43;;
11608;SDS011;5860;52.018;8.536;2024-03-08T00:49:45;28.97;;;18.50;;
11608;SDS011;5860;52.018;8.536;2024-03-08T00:52:13;31.17;;;19.40;;
11608;SDS011;5860;52.018;8.536;2024-03-08T00:54:40;29.00;;;18.97;;
11608;SDS011;5860;52.018;8.536;2024-03-08T00:57:09;26.90;;;18.90;;
11608;SDS011;5860;52.018;8.536;2024-03-08T00:59:37;27.77;;;19.37;;
11608;SDS011;5860;52.018;8.536;2024-03-08T01:02:05;27.00;;;18.73;;
11608;SDS011;5860;52.018;8.536;2024-03-08T01:04:32;28.20;;;19.30;;
11608;SDS011;5860;52.018;8.536;2024-03-08T01:06:59;30.03;;;19.33;;
11608;SDS011;5860;52.018;8.536;2024-03-08T01:09:27;25.83;;;19.13;;
11608;SDS011;5860;52.018;8.536;2024-03-08T01:11:54;28.77;;;18.80;;
11608;SDS011;5860;52.018;8.536;2024-03-08T01:14:22;29.00;;;19.30;;
11608;SDS011;5860;52.018;8.536;2024-03-08T01:16:49;29.77;;;19.83;;
11608;SDS011;5860;52.018;8.536;2024-03-08T01:19:16;26.70;;;18.87;;
11608;SDS011;5860;52.018;8.536;2024-03-08T01:21:43;30.83;;;19.47;;
11608;SDS011;5860;52.018;8.536;2024-03-08T01:24:10;30.93;;;18.33;;
11608;SDS011;5860;52.018;8.536;2024-03-08T01:26:37;31.00;;;19.47;;
11608;SDS011;5860;52.018;8.536;2024-03-08T01:29:05;31.03;;;20.20;;
11608;SDS011;5860;52.018;8.536;2024-03-08T01:31:32;27.47;;;19.57;;
11608;SDS011;5860;52.018;8.536;2024-03-08T01:33:59;31.00;;;21.40;;
11608;SDS011;5860;52.018;8.536;2024-03-08T01:36:26;32.77;;;21.63;;
11608;SDS011;5860;52.018;8.536;2024-03-08T01:38:53;31.77;;;21.00;;
11608;SDS011;5860;52.018;8.536;2024-03-08T01:41:20;29.90;;;19.90;;
11608;SDS011;5860;52.018;8.536;2024-03-08T01:43:47;27.60;;;20.33;;
11608;SDS011;5860;52.018;8.536;2024-03-08T01:46:15;30.77;;;20.83;;
11608;SDS011;5860;52.018;8.536;2024-03-08T01:48:48;32.60;;;21.83;;
11608;SDS011;5860;52.018;8.536;2024-03-08T01:51:18;33.53;;;22.23;;
11608;SDS011;5860;52.018;8.536;2024-03-08T01:53:46;30.20;;;20.63;;
11608;SDS011;5860;52.018;8.536;2024-03-08T01:56:13;32.37;;;21.93;;
11608;SDS011;5860;52.018;8.536;2024-03-08T01:58:41;31.40;;;21.57;;
11608;SDS011;5860;52.018;8.536;2024-03-08T02:01:11;32.00;;;21.07;;
11608;SDS011;5860;52.018;8.536;2024-03-08T02:03:41;31.83;;;21.77;;
11608;SDS011;5860;52.018;8.536;2024-03-08T02:06:12;33.00;;;21.73;;
11608;SDS011;5860;52.018;8.536;2024-03-08T02:08:44;31.93;;;21.63;;
11608;SDS011;5860;52.018;8.536;2024-03-08T02:11:12;31.23;;;21.73;;
11608;SDS011;5860;52.018;8.536;2024-03-08T02:13:39;35.83;;;22.97;;
11608;SDS011;5860;52.018;8.536;2024-03-08T02:16:06;32.77;;;22.63;;
11608;SDS011;5860;52.018;8.536;2024-03-08T02:18:35;29.47;;;21.97;;
11608;SDS011;5860;52.018;8.536;2024-03-08T02:21:04;35.33;;;23.23;;
11608;SDS011;5860;52.018;8.536;2024-03-08T02:23:32;36.30;;;23.50;;
11608;SDS011;5860;52.018;8.536;2024-03-08T02:26:00;34.97;;;23.30;;
11608;SDS011;5860;52.018;8.536;2024-03-08T02:28:27;36.23;;;22.43;;
11608;SDS011;5860;52.018;8.536;2024-03-08T02:30:55;33.67;;;22.53;;
11608;SDS011;5860;52.018;8.536;2024-03-08T02:33:24;36.17;;;23.73;;
11608;SDS011;5860;52.018;8.536;2024-03-08T02:35:54;32.73;;;22.47;;
11608;SDS011;5860;52.018;8.536;2024-03-08T02:38:22;31.73;;;22.10;;
11608;SDS011;5860;52.018;8.536;2024-03-08T02:40:52;32.17;;;22.77;;
11608;SDS011;5860;52.018;8.536;2024-03-08T02:43:20;36.93;;;23.93;;
11608;SDS011;5860;52.018;8.536;2024-03-08T02:45:51;34.80;;;22.33;;
11608;SDS011;5860;52.018;8.536;2024-03-08T02:48:21;31.00;;;21.67;;
11608;SDS011;5860;52.018;8.536;2024-03-08T02:50:49;34.37;;;22.83;;
11608;SDS011;5860;52.018;8.536;2024-03-08T02:53:18;35.43;;;23.57;;
11608;SDS011;5860;52.018;8.536;2024-03-08T02:55:48;34.17;;;23.27;;
11608;SDS011;5860;52.018;8.536;2024-03-08T02:58:15;34.13;;;23.93;;
11608;SDS011;5860;52.018;8.536;2024-03-08T03:00:42;37.67;;;24.33;;
11608;SDS011;5860;52.018;8.536;2024-03-08T03:03:10;36.13;;;23.27;;
11608;SDS011;5860;52.018;8.536;2024-03-08T03:05:37;36.47;;;22.80;;
11608;SDS011;5860;52.018;8.536;2024-03-08T03:08:04;34.77;;;23.37;;
11608;SDS011;5860;52.018;8.536;2024-03-08T03:10:36;35.97;;;23.60;;
11608;SDS011;5860;52.018;8.536;2024-03-08T03:13:03;33.70;;;23.43;;
11608;SDS011;5860;52.018;8.536;2024-03-08T03:15:31;37.43;;;23.97;;
11608;SDS011;5860;52.018;8.536;2024-03-08T03:18:00;37.50;;;24.50;;
11608;SDS011;5860;52.018;8.536;2024-03-08T03:20:27;33.07;;;22.57;;
11608;SDS011;5860;52.018;8.536;2024-03-08T03:22:59;33.73;;;23.03;;
11608;SDS011;5860;52.018;8.536;2024-03-08T03:25:30;38.33;;;24.03;;
11608;SDS011;5860;52.018;8.536;2024-03-08T03:28:02;37.43;;;23.70;;
11608;SDS011;5860;52.018;8.536;2024-03-08T03:30:29;34.67;;;23.50;;
11608;SDS011;5860;52.018;8.536;2024-03-08T03:33:00;37.47;;;22.87;;
11608;SDS011;5860;52.018;8.536;2024-03-08T03:35:28;34.57;;;22.83;;
11608;SDS011;5860;52.018;8.536;2024-03-08T03:37:58;33.77;;;22.97;;
11608;SDS011;5860;52.018;8.536;2024-03-08T03:40:37;36.67;;;23.97;;
11608;SDS011;5860;52.018;8.536;2024-03-08T03:43:05;41.97;;;24.07;;
11608;SDS011;5860;52.018;8.536;2024-03-08T03:45:34;34.23;;;24.47;;
11608;SDS011;5860;52.018;8.536;2024-03-08T03:48:03;38.27;;;24.00;;
11608;SDS011;5860;52.018;8.536;2024-03-08T03:50:33;35.57;;;23.63;;
11608;SDS011;5860;52.018;8.536;2024-03-08T03:53:02;37.60;;;24.10;;
11608;SDS011;5860;52.018;8.536;2024-03-08T03:55:30;37.70;;;24.90;;
11608;SDS011;5860;52.018;8.536;2024-03-08T03:57:56;36.27;;;24.27;;
11608;SDS011;5860;52.018;8.536;2024-03-08T04:00:25;37.87;;;24.27;;
11608;SDS011;5860;52.018;8.536;2024-03-08T04:02:54;36.13;;;23.70;;
11608;SDS011;5860;52.018;8.536;2024-03-08T04:05:22;35.43;;;24.70;;
11608;SDS011;5860;52.018;8.536;2024-03-08T04:07:49;35.37;;;23.53;;
11608;SDS011;5860;52.018;8.536;2024-03-08T04:10:16;39.27;;;24.33;;
11608;SDS011;5860;52.018;8.536;2024-03-08T04:12:43;35.03;;;22.83;;
11608;SDS011;5860;52.018;8.536;2024-03-08T04:15:11;38.87;;;24.10;;
11608;SDS011;5860;52.018;8.536;2024-03-08T04:17:38;35.37;;;24.23;;
11608;SDS011;5860;52.018;8.536;2024-03-08T04:20:06;34.47;;;24.03;;
11608;SDS011;5860;52.018;8.536;2024-03-08T04:22:37;36.30;;;24.33;;
11608;SDS011;5860;52.018;8.536;2024-03-08T04:25:06;36.60;;;23.80;;
11608;SDS011;5860;52.018;8.536;2024-03-08T04:27:33;34.17;;;23.60;;
11608;SDS011;5860;52.018;8.536;2024-03-08T04:30:01;35.97;;;22.87;;
11608;SDS011;5860;52.018;8.536;2024-03-08T04:32:29;34.90;;;22.57;;
11608;SDS011;5860;52.018;8.536;2024-03-08T04:34:59;35.53;;;23.97;;
11608;SDS011;5860;52.018;8.536;2024-03-08T04:37:28;36.67;;;23.93;;
11608;SDS011;5860;52.018;8.536;2024-03-08T04:39:58;35.00;;;23.27;;
11608;SDS011;5860;52.018;8.536;2024-03-08T04:42:29;34.03;;;22.67;;
11608;SDS011;5860;52.018;8.536;2024-03-08T04:44:59;35.27;;;23.40;;
11608;SDS011;5860;52.018;8.536;2024-03-08T04:47:26;37.93;;;25.27;;
11608;SDS011;5860;52.018;8.536;2024-03-08T04:49:53;36.20;;;23.67;;
11608;SDS011;5860;52.018;8.536;2024-03-08T04:52:21;39.27;;;24.20;;
11608;SDS011;5860;52.018;8.536;2024-03-08T04:54:48;38.37;;;23.77;;
11608;SDS011;5860;52.018;8.536;2024-03-08T04:57:15;34.53;;;22.87;;
11608;SDS011;5860;52.018;8.536;2024-03-08T04:59:45;34.53;;;22.90;;
11608;SDS011;5860;52.018;8.536;2024-03-08T05:02:12;36.60;;;23.63;;
11608;SDS011;5860;52.018;8.536;2024-03-08T05:04:39;36.97;;;24.17;;
11608;SDS011;5860;52.018;8.536;2024-03-08T05:07:06;38.00;;;24.50;;
11608;SDS011;5860;52.018;8.536;2024-03-08T05:09:33;35.50;;;23.60;;
11608;SDS011;5860;52.018;8.536;2024-03-08T05:12:02;42.60;;;25.50;;
11608;SDS011;5860;52.018;8.536;2024-03-08T05:14:29;40.03;;;25.10;;
11608;SDS011;5860;52.018;8.536;2024-03-08T05:16:56;39.57;;;23.70;;
11608;SDS011;5860;52.018;8.536;2024-03-08T05:19:23;35.90;;;23.40;;
11608;SDS011;5860;52.018;8.536;2024-03-08T05:21:50;38.63;;;24.13;;
11608;SDS011;5860;52.018;8.536;2024-03-08T05:24:17;38.30;;;25.17;;
11608;SDS011;5860;52.018;8.536;2024-03-08T05:26:45;37.33;;;24.23;;
11608;SDS011;5860;52.018;8.536;2024-03-08T05:29:14;40.17;;;25.87;;
11608;SDS011;5860;52.018;8.536;2024-03-08T05:31:48;42.63;;;26.47;;
11608;SDS011;5860;52.018;8.536;2024-03-08T05:34:16;37.33;;;24.73;;
11608;SDS011;5860;52.018;8.536;2024-03-08T05:36:43;43.50;;;24.73;;
11608;SDS011;5860;52.018;8.536;2024-03-08T05:39:11;38.50;;;24.83;;
11608;SDS011;5860;52.018;8.536;2024-03-08T05:41:39;35.83;;;24.17;;
11608;SDS011;5860;52.018;8.536;2024-03-08T05:44:07;38.77;;;24.07;;
11608;SDS011;5860;52.018;8.536;2024-03-08T05:46:34;36.30;;;24.00;;
11608;SDS011;5860;52.018;8.536;2024-03-08T05:49:05;37.77;;;24.40;;
11608;SDS011;5860;52.018;8.536;2024-03-08T05:51:33;34.03;;;23.20;;
11608;SDS011;5860;52.018;8.536;2024-03-08T05:54:01;41.97;;;26.10;;
11608;SDS011;5860;52.018;8.536;2024-03-08T05:56:29;36.50;;;24.90;;
11608;SDS011;5860;52.018;8.536;2024-03-08T05:58:56;36.43;;;24.93;;
11608;SDS011;5860;52.018;8.536;2024-03-08T06:01:27;37.53;;;23.90;;
11608;SDS011;5860;52.018;8.536;2024-03-08T06:03:55;36.10;;;24.87;;
11608;SDS011;5860;52.018;8.536;2024-03-08T06:06:23;38.80;;;25.30;;
11608;SDS011;5860;52.018;8.536;2024-03-08T06:08:51;37.20;;;23.90;;
11608;SDS011;5860;52.018;8.536;2024-03-08T06:11:19;37.67;;;24.30;;
11608;SDS011;5860;52.018;8.536;2024-03-08T06:13:47;38.37;;;24.83;;
11608;SDS011;5860;52.018;8.536;2024-03-08T06:16:14;35.23;;;23.53;;
11608;SDS011;5860;52.018;8.536;2024-03-08T06:18:41;36.87;;;24.47;;
11608;SDS011;5860;52.018;8.536;2024-03-08T06:21:08;38.93;;;24.17;;
11608;SDS011;5860;52.018;8.536;2024-03-08T06:23:38;42.33;;;24.27;;
11608;SDS011;5860;52.018;8.536;2024-03-08T06:26:06;36.97;;;23.90;;
11608;SDS011;5860;52.018;8.536;2024-03-08T06:28:35;36.43;;;24.90;;
11608;SDS011;5860;52.018;8.536;2024-03-08T06:31:02;40.03;;;24.63;;
11608;SDS011;5860;52.018;8.536;2024-03-08T06:33:29;40.87;;;25.10;;
11608;SDS011;5860;52.018;8.536;2024-03-08T06:35:59;37.33;;;24.17;;
11608;SDS011;5860;52.018;8.536;2024-03-08T06:38:26;38.27;;;24.37;;
11608;SDS011;5860;52.018;8.536;2024-03-08T06:40:53;35.53;;;24.00;;
11608;SDS011;5860;52.018;8.536;2024-03-08T06:43:21;34.33;;;23.77;;
11608;SDS011;5860;52.018;8.536;2024-03-08T06:45:48;36.43;;;23.57;;
11608;SDS011;5860;52.018;8.536;2024-03-08T06:48:16;34.27;;;22.07;;
11608;SDS011;5860;52.018;8.536;2024-03-08T06:50:46;37.83;;;22.97;;
11608;SDS011;5860;52.018;8.536;2024-03-08T06:53:14;33.37;;;22.20;;
11608;SDS011;5860;52.018;8.536;2024-03-08T06:55:44;37.87;;;23.70;;
11608;SDS011;5860;52.018;8.536;2024-03-08T06:58:11;32.87;;;22.30;;
11608;SDS011;5860;52.018;8.536;2024-03-08T07:00:38;35.67;;;23.03;;
11608;SDS011;5860;52.018;8.536;2024-03-08T07:03:08;32.93;;;22.10;;
11608;SDS011;5860;52.018;8.536;2024-03-08T07:05:38;33.23;;;22.90;;
11608;SDS011;5860;52.018;8.536;2024-03-08T07:08:06;32.27;;;22.03;;
11608;SDS011;5860;52.018;8.536;2024-03-08T07:10:34;35.30;;;22.20;;
11608;SDS011;5860;52.018;8.536;2024-03-08T07:13:01;33.70;;;23.07;;
11608;SDS011;5860;52.018;8.536;2024-03-08T07:15:28;34.13;;;21.90;;
11608;SDS011;5860;52.018;8.536;2024-03-08T07:17:55;32.17;;;22.53;;
11608;SDS011;5860;52.018;8.536;2024-03-08T07:20:22;33.23;;;23.27;;
11608;SDS011;5860;52.018;8.536;2024-03-08T07:22:49;33.83;;;23.17;;
11608;SDS011;5860;52.018;8.536;2024-03-08T07:25:20;30.70;;;21.67;;
11608;SDS011;5860;52.018;8.536;2024-03-08T07:27:49;34.53;;;23.07;;
11608;SDS011;5860;52.018;8.536;2024-03-08T07:30:18;33.87;;;22.50;;
11608;SDS011;5860;52.018;8.536;2024-03-08T07:33:07;31.53;;;21.63;;
11608;SDS011;5860;52.018;8.536;2024-03-08T07:35:39;33.27;;;23.13;;
11608;SDS011;5860;52.018;8.536;2024-03-08T07:38:10;34.50;;;21.43;;
11608;SDS011;5860;52.018;8.536;2024-03-08T07:40:38;35.33;;;23.77;;
11608;SDS011;5860;52.018;8.536;2024-03-08T07:43:07;30.97;;;21.83;;
11608;SDS011;5860;52.018;8.536;2024-03-08T07:45:34;32.17;;;22.13;;
11608;SDS011;5860;52.018;8.536;2024-03-08T07:48:02;31.47;;;21.07;;
11608;SDS011;5860;52.018;8.536;2024-03-08T07:50:30;32.97;;;21.90;;
11608;SDS011;5860;52.018;8.536;2024-03-08T07:52:59;35.37;;;22.03;;
11608;SDS011;5860;52.018;8.536;2024-03-08T07:55:27;32.60;;;21.87;;
11608;SDS011;5860;52.018;8.536;2024-03-08T07:57:55;32.70;;;22.10;;
11608;SDS011;5860;52.018;8.536;2024-03-08T08:00:21;30.90;;;21.20;;
11608;SDS011;5860;52.018;8.536;2024-03-08T08:02:50;33.60;;;22.17;;
11608;SDS011;5860;52.018;8.536;2024-03-08T08:05:17;33.90;;;22.27;;
11608;SDS011;5860;52.018;8.536;2024-03-08T08:07:44;37.97;;;22.60;;
11608;SDS011;5860;52.018;8.536;2024-03-08T08:10:15;30.43;;;21.23;;
11608;SDS011;5860;52.018;8.536;2024-03-08T08:12:48;31.23;;;21.37;;
11608;SDS011;5860;52.018;8.536;2024-03-08T08:15:16;31.07;;;22.10;;
11608;SDS011;5860;52.018;8.536;2024-03-08T08:17:43;30.17;;;21.87;;
11608;SDS011;5860;52.018;8.536;2024-03-08T08:20:18;32.00;;;22.50;;
11608;SDS011;5860;52.018;8.536;2024-03-08T08:22:45;36.80;;;21.73;;
11608;SDS011;5860;52.018;8.536;2024-03-08T08:25:14;33.77;;;23.13;;
11608;SDS011;5860;52.018;8.536;2024-03-08T08:27:42;31.97;;;21.50;;
11608;SDS011;5860;52.018;8.536;2024-03-08T08:30:09;31.13;;;21.20;;
11608;SDS011;5860;52.018;8.536;2024-03-08T08:32:38;32.53;;;21.47;;
11608;SDS011;5860;52.018;8.536;2024-03-08T08:35:13;31.30;;;22.70;;
11608;SDS011;5860;52.018;8.536;2024-03-08T08:37:40;31.33;;;22.33;;
11608;SDS011;5860;52.018;8.536;2024-03-08T08:40:08;30.87;;;22.37;;
11608;SDS011;5860;52.018;8.536;2024-03-08T08:42:37;35.03;;;23.37;;
11608;SDS011;5860;52.018;8.536;2024-03-08T08:45:07;34.97;;;22.40;;
11608;SDS011;5860;52.018;8.536;2024-03-08T08:47:42;36.47;;;23.63;;
11608;SDS011;5860;52.018;8.536;2024-03-08T08:50:12;34.63;;;22.07;;
11608;SDS011;5860;52.018;8.536;2024-03-08T08:52:39;31.83;;;22.40;;
11608;SDS011;5860;52.018;8.536;2024-03-08T08:55:07;30.17;;;21.83;;
11608;SDS011;5860;52.018;8.536;2024-03-08T08:57:34;31.93;;;22.57;;
11608;SDS011;5860;52.018;8.536;2024-03-08T09:00:02;31.80;;;22.53;;
11608;SDS011;5860;52.018;8.536;2024-03-08T09:02:34;32.23;;;21.73;;
11608;SDS011;5860;52.018;8.536;2024-03-08T09:05:01;34.13;;;22.47;;
11608;SDS011;5860;52.018;8.536;2024-03-08T09:07:29;30.30;;;21.17;;
11608;SDS011;5860;52.018;8.536;2024-03-08T09:09:56;34.73;;;21.83;;
11608;SDS011;5860;52.018;8.536;2024-03-08T09:12:25;34.00;;;21.63;;
11608;SDS011;5860;52.018;8.536;2024-03-08T09:14:52;31.47;;;22.07;;
11608;SDS011;5860;52.018;8.536;2024-03-08T09:17:19;33.47;;;22.00;;
11608;SDS011;5860;52.018;8.536;2024-03-08T09:19:47;28.83;;;21.33;;
11608;SDS011;5860;52.018;8.536;2024-03-08T09:22:14;29.67;;;20.93;;
11608;SDS011;5860;52.018;8.536;2024-03-08T09:24:41;29.23;;;20.53;;
11608;SDS011;5860;52.018;8.536;2024-03-08T09:27:09;27.87;;;20.60;;
11608;SDS011;5860;52.018;8.536;2024-03-08T09:29:36;30.63;;;20.90;;
11608;SDS011;5860;52.018;8.536;2024-03-08T09:32:03;31.67;;;20.33;;
11608;SDS011;5860;52.018;8.536;2024-03-08T09:34:30;31.93;;;22.27;;
11608;SDS011;5860;52.018;8.536;2024-03-08T09:37:03;32.03;;;21.67;;
11608;SDS011;5860;52.018;8.536;2024-03-08T09:39:31;28.80;;;20.73;;
11608;SDS011;5860;52.018;8.536;2024-03-08T09:42:00;29.40;;;20.13;;
11608;SDS011;5860;52.018;8.536;2024-03-08T09:44:28;31.00;;;20.70;;
11608;SDS011;5860;52.018;8.536;2024-03-08T09:46:55;24.50;;;19.00;;
11608;SDS011;5860;52.018;8.536;2024-03-08T09:49:24;28.93;;;19.63;;
11608;SDS011;5860;52.018;8.536;2024-03-08T09:51:52;28.70;;;19.83;;
11608;SDS011;5860;52.018;8.536;2024-03-08T09:54:19;27.30;;;20.13;;
11608;SDS011;5860;52.018;8.536;2024-03-08T09:56:51;31.80;;;20.30;;
11608;SDS011;5860;52.018;8.536;2024-03-08T09:59:19;27.13;;;19.83;;
11608;SDS011;5860;52.018;8.536;2024-03-08T10:02:08;26.83;;;20.23;;
11608;SDS011;5860;52.018;8.536;2024-03-08T10:04:41;29.60;;;20.07;;
11608;SDS011;5860;52.018;8.536;2024-03-08T10:07:09;31.50;;;21.43;;
11608;SDS011;5860;52.018;8.536;2024-03-08T10:09:35;26.93;;;18.93;;
11608;SDS011;5860;52.018;8.536;2024-03-08T10:12:03;24.67;;;19.40;;
11608;SDS011;5860;52.018;8.536;2024-03-08T10:14:31;27.93;;;19.30;;
11608;SDS011;5860;52.018;8.536;2024-03-08T10:16:58;23.47;;;18.33;;
11608;SDS011;5860;52.018;8.536;2024-03-08T10:19:27;28.20;;;18.93;;
11608;SDS011;5860;52.018;8.536;2024-03-08T10:21:58;26.40;;;18.87;;
11608;SDS011;5860;52.018;8.536;2024-03-08T10:24:26;26.30;;;18.60;;
11608;SDS011;5860;52.018;8.536;2024-03-08T10:27:00;24.23;;;18.80;;
11608;SDS011;5860;52.018;8.536;2024-03-08T10:29:31;25.27;;;18.47;;
11608;SDS011;5860;52.018;8.536;2024-03-08T10:31:59;23.77;;;18.03;;
11608;SDS011;5860;52.018;8.536;2024-03-08T10:34:26;27.33;;;19.13;;
11608;SDS011;5860;52.018;8.536;2024-03-08T10:36:54;24.73;;;17.23;;
11608;SDS011;5860;52.018;8.536;2024-03-08T10:39:34;25.83;;;19.60;;
11608;SDS011;5860;52.018;8.536;2024-03-08T10:42:02;25.43;;;17.87;;
11608;SDS011;5860;52.018;8.536;2024-03-08T10:44:43;28.27;;;18.20;;
11608;SDS011;5860;52.018;8.536;2024-03-08T10:47:28;25.03;;;19.00;;
11608;SDS011;5860;52.018;8.536;2024-03-08T10:50:07;28.63;;;18.80;;
11608;SDS011;5860;52.018;8.536;2024-03-08T10:52:49;22.27;;;15.53;;
11608;SDS011;5860;52.018;8.536;2024-03-08T10:55:18;23.43;;;16.30;;
11608;SDS011;5860;52.018;8.536;2024-03-08T10:57:47;20.63;;;15.93;;
11608;SDS011;5860;52.018;8.536;2024-03-08T11:00:14;20.27;;;15.43;;
11608;SDS011;5860;52.018;8.536;2024-03-08T11:02:45;23.00;;;18.50;;
11608;SDS011;5860;52.018;8.536;2024-03-08T11:05:31;21.33;;;16.97;;
11608;SDS011;5860;52.018;8.536;2024-03-08T11:10:47;21.67;;;17.03;;
11608;SDS011;5860;52.018;8.536;2024-03-08T11:13:36;22.57;;;17.40;;
11608;SDS011;5860;52.018;8.536;2024-03-08T11:16:08;26.13;;;18.30;;
11608;SDS011;5860;52.018;8.536;2024-03-08T11:18:39;26.33;;;19.03;;
11608;SDS011;5860;52.018;8.536;2024-03-08T11:21:09;25.00;;;18.90;;
11608;SDS011;5860;52.018;8.536;2024-03-08T11:23:39;24.83;;;18.53;;
11608;SDS011;5860;52.018;8.536;2024-03-08T11:26:23;24.90;;;18.43;;
11608;SDS011;5860;52.018;8.536;2024-03-08T11:28:50;23.87;;;17.80;;
11608;SDS011;5860;52.018;8.536;2024-03-08T11:31:24;24.53;;;17.60;;
11608;SDS011;5860;52.018;8.536;2024-03-08T11:33:53;24.33;;;18.17;;
11608;SDS011;5860;52.018;8.536;2024-03-08T11:36:24;23.87;;;18.23;;
11608;SDS011;5860;52.018;8.536;2024-03-08T11:38:52;24.50;;;17.77;;
11608;SDS011;5860;52.018;8.536;2024-03-08T11:41:21;25.07;;;18.17;;
11608;SDS011;5860;52.018;8.536;2024-03-08T11:43:50;26.57;;;18.13;;
11608;SDS011;5860;52.018;8.536;2024-03-08T11:46:32;24.50;;;18.23;;
11608;SDS011;5860;52.018;8.536;2024-03-08T11:49:00;22.63;;;17.80;;
11608;SDS011;5860;52.018;8.536;2024-03-08T11:51:27;22.60;;;17.50;;
11608;SDS011;5860;52.018;8.536;2024-03-08T11:53:54;24.30;;;18.67;;
11608;SDS011;5860;52.018;8.536;2024-03-08T11:56:22;22.10;;;17.07;;
11608;SDS011;5860;52.018;8.536;2024-03-08T11:58:54;24.10;;;17.07;;
11608;SDS011;5860;52.018;8.536;2024-03-08T12:01:25;23.87;;;16.93;;
11608;SDS011;5860;52.018;8.536;2024-03-08T12:03:56;24.30;;;17.63;;
11608;SDS011;5860;52.018;8.536;2024-03-08T12:06:26;21.97;;;17.47;;
11608;SDS011;5860;52.018;8.536;2024-03-08T12:09:02;22.17;;;16.17;;
11608;SDS011;5860;52.018;8.536;2024-03-08T12:11:29;22.37;;;17.83;;
11608;SDS011;5860;52.018;8.536;2024-03-08T12:13:59;21.60;;;16.43;;
11608;SDS011;5860;52.018;8.536;2024-03-08T12:16:27;21.93;;;16.70;;
11608;SDS011;5860;52.018;8.536;2024-03-08T12:18:55;22.13;;;16.23;;
11608;SDS011;5860;52.018;8.536;2024-03-08T12:21:22;20.93;;;15.67;;
11608;SDS011;5860;52.018;8.536;2024-03-08T12:24:05;18.83;;;14.80;;
11608;SDS011;5860;52.018;8.536;2024-03-08T12:26:36;24.13;;;17.00;;
11608;SDS011;5860;52.018;8.536;2024-03-08T12:31:47;22.57;;;16.13;;
11608;SDS011;5860;52.018;8.536;2024-03-08T12:34:15;18.73;;;14.10;;
11608;SDS011;5860;52.018;8.536;2024-03-08T12:36:49;19.10;;;14.23;;
11608;SDS011;5860;52.018;8.536;2024-03-08T12:39:21;19.17;;;14.87;;
11608;SDS011;5860;52.018;8.536;2024-03-08T12:41:49;22.13;;;15.03;;
11608;SDS011;5860;52.018;8.536;2024-03-08T12:44:19;19.30;;;14.27;;
11608;SDS011;5860;52.018;8.536;2024-03-08T12:46:48;20.70;;;14.63;;
11608;SDS011;5860;52.018;8.536;2024-03-08T12:49:18;19.43;;;15.20;;
11608;SDS011;5860;52.018;8.536;2024-03-08T12:51:49;21.30;;;15.10;;
11608;SDS011;5860;52.018;8.536;2024-03-08T12:54:17;18.83;;;14.93;;
11608;SDS011;5860;52.018;8.536;2024-03-08T12:56:44;18.70;;;14.97;;
11608;SDS011;5860;52.018;8.536;2024-03-08T12:59:11;24.20;;;14.30;;
11608;SDS011;5860;52.018;8.536;2024-03-08T13:01:39;20.20;;;14.00;;
11608;SDS011;5860;52.018;8.536;2024-03-08T13:04:06;19.97;;;14.50;;
11608;SDS011;5860;52.018;8.536;2024-03-08T13:06:37;20.67;;;14.57;;
11608;SDS011;5860;52.018;8.536;2024-03-08T13:09:04;19.87;;;14.73;;
11608;SDS011;5860;52.018;8.536;2024-03-08T13:11:32;18.07;;;15.07;;
11608;SDS011;5860;52.018;8.536;2024-03-08T13:14:04;20.70;;;14.60;;
11608;SDS011;5860;52.018;8.536;2024-03-08T13:16:34;18.70;;;14.50;;
11608;SDS011;5860;52.018;8.536;2024-03-08T13:19:01;19.50;;;15.73;;
11608;SDS011;5860;52.018;8.536;2024-03-08T13:21:29;21.70;;;15.93;;
11608;SDS011;5860;52.018;8.536;2024-03-08T13:23:56;23.60;;;17.30;;
11608;SDS011;5860;52.018;8.536;2024-03-08T13:26:25;22.07;;;16.83;;
11608;SDS011;5860;52.018;8.536;2024-03-08T13:28:59;22.17;;;17.07;;
11608;SDS011;5860;52.018;8.536;2024-03-08T13:31:27;21.43;;;16.87;;
11608;SDS011;5860;52.018;8.536;2024-03-08T13:33:54;23.73;;;17.87;;
11608;SDS011;5860;52.018;8.536;2024-03-08T13:36:25;24.87;;;17.27;;
11608;SDS011;5860;52.018;8.536;2024-03-08T13:38:56;22.83;;;17.80;;
11608;SDS011;5860;52.018;8.536;2024-03-08T13:41:26;26.17;;;18.17;;
11608;SDS011;5860;52.018;8.536;2024-03-08T13:43:56;22.70;;;17.63;;
11608;SDS011;5860;52.018;8.536;2024-03-08T13:46:23;23.90;;;17.33;;
11608;SDS011;5860;52.018;8.536;2024-03-08T13:48:51;21.57;;;18.10;;
11608;SDS011;5860;52.018;8.536;2024-03-08T13:51:20;23.47;;;17.93;;
11608;SDS011;5860;52.018;8.536;2024-03-08T13:53:49;25.13;;;18.00;;
11608;SDS011;5860;52.018;8.536;2024-03-08T13:56:16;23.50;;;16.10;;
11608;SDS011;5860;52.018;8.536;2024-03-08T13:58:43;25.30;;;16.90;;
11608;SDS011;5860;52.018;8.536;2024-03-08T14:01:10;21.00;;;15.70;;
11608;SDS011;5860;52.018;8.536;2024-03-08T14:03:39;22.67;;;15.43;;
11608;SDS011;5860;52.018;8.536;2024-03-08T14:06:09;20.30;;;16.00;;
11608;SDS011;5860;52.018;8.536;2024-03-08T14:08:51;20.67;;;16.43;;
11608;SDS011;5860;52.018;8.536;2024-03-08T14:11:18;22.27;;;15.90;;
11608;SDS011;5860;52.018;8.536;2024-03-08T14:13:46;23.60;;;16.73;;
11608;SDS011;5860;52.018;8.536;2024-03-08T14:16:13;24.90;;;16.03;;
11608;SDS011;5860;52.018;8.536;2024-03-08T14:18:42;22.00;;;16.17;;
11608;SDS011;5860;52.018;8.536;2024-03-08T14:21:09;22.87;;;17.20;;
11608;SDS011;5860;52.018;8.536;2024-03-08T14:23:37;23.30;;;17.57;;
11608;SDS011;5860;52.018;8.536;2024-03-08T14:26:07;21.63;;;16.53;;
11608;SDS011;5860;52.018;8.536;2024-03-08T14:28:35;24.90;;;17.10;;
11608;SDS011;5860;52.018;8.536;2024-03-08T14:31:02;25.27;;;17.10;;
11608;SDS011;5860;52.018;8.536;2024-03-08T14:33:33;22.70;;;16.80;;
11608;SDS011;5860;52.018;8.536;2024-03-08T14:36:00;23.57;;;17.33;;
11608;SDS011;5860;52.018;8.536;2024-03-08T14:38:27;21.43;;;16.27;;
11608;SDS011;5860;52.018;8.536;2024-03-08T14:40:55;19.90;;;15.10;;
11608;SDS011;5860;52.018;8.536;2024-03-08T14:43:22;26.83;;;16.90;;
11608;SDS011;5860;52.018;8.536;2024-03-08T14:45:50;21.30;;;14.90;;
11608;SDS011;5860;52.018;8.536;2024-03-08T14:48:19;21.70;;;14.93;;